createdAt,value
2017-09-20T00:01:52.769Z,29.60
2017-09-20T00:04:27.686Z,31.18
2017-09-20T00:06:55.976Z,28.60
2017-09-20T00:09:25.234Z,31.02
2017-09-20T00:11:53.534Z,31.22
2017-09-20T00:14:34.467Z,31.00
2017-09-20T00:17:02.754Z,29.72
2017-09-20T00:19:31.043Z,30.00
2017-09-20T00:21:59.296Z,29.56
2017-09-20T00:24:27.587Z,30.72
2017-09-20T00:26:55.857Z,31.22
2017-09-20T00:29:30.179Z,30.80
2017-09-20T00:31:58.440Z,28.78
2017-09-20T00:34:28.672Z,30.44
2017-09-20T00:36:56.941Z,28.64
2017-09-20T00:39:26.156Z,30.08
2017-09-20T00:41:54.452Z,30.42
2017-09-20T00:44:40.017Z,29.38
2017-09-20T00:47:08.312Z,29.04
2017-09-20T00:49:40.706Z,30.56
2017-09-20T00:52:08.970Z,28.18
2017-09-20T00:54:39.261Z,27.84
2017-09-20T00:57:07.558Z,26.44
2017-09-20T00:59:37.791Z,27.82
2017-09-20T01:02:06.093Z,27.86
2017-09-20T01:04:55.045Z,26.60
2017-09-20T01:07:23.303Z,29.08
2017-09-20T01:09:52.527Z,29.28
2017-09-20T01:12:20.829Z,27.40
2017-09-20T01:15:12.313Z,27.80
2017-09-20T01:17:40.587Z,28.02
2017-09-20T01:20:08.900Z,28.34
2017-09-20T01:22:49.899Z,27.88
2017-09-20T01:25:26.168Z,29.60
2017-09-20T01:27:54.444Z,29.94
2017-09-20T01:30:23.680Z,33.46
2017-09-20T01:32:51.964Z,29.18
2017-09-20T01:35:19.469Z,28.24
2017-09-20T01:37:48.861Z,27.92
2017-09-20T01:40:40.815Z,30.24
2017-09-20T01:43:09.111Z,30.60
2017-09-20T01:45:49.101Z,31.60
2017-09-20T01:48:18.493Z,29.44
2017-09-20T01:50:50.314Z,27.86
2017-09-20T01:53:19.171Z,29.52
2017-09-20T01:55:49.000Z,30.54
2017-09-20T01:58:17.729Z,29.66
2017-09-20T02:00:56.215Z,31.08
2017-09-20T02:03:24.479Z,30.44
2017-09-20T02:06:13.661Z,28.36
2017-09-20T02:08:41.970Z,29.04
2017-09-20T02:11:21.451Z,28.20
2017-09-20T02:13:50.076Z,28.24
2017-09-20T02:16:19.317Z,28.62
2017-09-20T02:18:48.586Z,27.90
2017-09-20T02:21:35.951Z,30.72
2017-09-20T02:24:04.207Z,28.76
2017-09-20T02:26:35.916Z,26.72
2017-09-20T02:29:04.178Z,29.58
2017-09-20T02:31:36.919Z,25.96
2017-09-20T02:34:05.212Z,27.84
2017-09-20T02:36:33.484Z,27.86
2017-09-20T02:39:01.785Z,27.50
2017-09-20T02:41:39.992Z,27.82
2017-09-20T02:44:08.289Z,28.48
2017-09-20T02:46:37.551Z,29.44
2017-09-20T02:49:05.857Z,29.52
2017-09-20T02:51:44.352Z,27.74
2017-09-20T02:54:12.647Z,26.22
2017-09-20T02:56:58.074Z,25.82
2017-09-20T02:59:26.336Z,29.08
2017-09-20T03:02:04.538Z,27.74
2017-09-20T03:04:32.807Z,26.64
2017-09-20T03:07:01.081Z,25.86
2017-09-20T03:09:29.387Z,25.18
2017-09-20T03:12:07.856Z,25.22
2017-09-20T03:14:36.160Z,25.42
2017-09-20T03:17:05.416Z,28.30
2017-09-20T03:19:33.688Z,28.52
2017-09-20T03:24:56.167Z,25.80
2017-09-20T03:27:24.464Z,28.22
2017-09-20T03:30:09.562Z,25.90
2017-09-20T03:32:37.858Z,25.84
2017-09-20T03:35:06.126Z,29.32
2017-09-20T03:37:34.432Z,26.18
2017-09-20T03:40:10.897Z,24.40
2017-09-20T03:42:39.187Z,27.38
2017-09-20T03:45:07.452Z,25.80
2017-09-20T03:47:35.711Z,24.76
2017-09-20T03:50:04.028Z,24.24
2017-09-20T03:52:32.285Z,26.50
2017-09-20T03:55:10.375Z,25.38
2017-09-20T03:57:38.647Z,27.06
2017-09-20T04:00:18.705Z,27.08
2017-09-20T04:02:48.271Z,26.16
2017-09-20T04:05:31.323Z,27.04
2017-09-20T04:07:59.599Z,27.28
2017-09-20T04:10:44.219Z,26.50
2017-09-20T04:13:12.476Z,26.90
2017-09-20T04:15:40.732Z,26.02
2017-09-20T04:18:09.023Z,25.56
2017-09-20T04:20:48.735Z,26.50
2017-09-20T04:23:16.264Z,22.94
2017-09-20T04:25:50.143Z,24.86
2017-09-20T04:28:19.616Z,22.96
2017-09-20T04:30:59.018Z,26.38
2017-09-20T04:33:27.330Z,27.12
2017-09-20T04:35:56.571Z,27.46
2017-09-20T04:38:24.830Z,26.28
2017-09-20T04:41:07.183Z,25.94
2017-09-20T04:43:35.459Z,25.58
2017-09-20T04:46:03.761Z,25.46
2017-09-20T04:48:32.028Z,27.42
2017-09-20T04:51:00.325Z,27.02
2017-09-20T04:53:28.573Z,26.00
2017-09-20T04:55:56.877Z,25.46
2017-09-20T04:58:28.543Z,25.06
2017-09-20T05:00:56.820Z,26.82
2017-09-20T05:03:26.067Z,25.84
2017-09-20T05:05:54.368Z,25.80
2017-09-20T05:08:23.573Z,25.56
2017-09-20T05:10:51.871Z,27.86
2017-09-20T05:13:19.412Z,25.84
2017-09-20T05:15:48.943Z,27.66
2017-09-20T05:18:23.179Z,24.04
2017-09-20T05:20:51.463Z,27.10
2017-09-20T05:23:19.727Z,27.00
2017-09-20T05:25:49.035Z,24.94
2017-09-20T05:28:19.270Z,26.70
2017-09-20T05:30:48.808Z,28.20
2017-09-20T05:33:19.082Z,27.32
2017-09-20T05:35:48.348Z,28.42
2017-09-20T05:38:26.599Z,28.94
2017-09-20T05:40:54.860Z,27.48
2017-09-20T05:43:27.035Z,28.82
2017-09-20T05:45:55.288Z,27.36
2017-09-20T05:48:23.563Z,27.40
2017-09-20T05:50:51.868Z,27.84
2017-09-20T05:53:19.387Z,28.54
2017-09-20T05:55:48.145Z,30.10
2017-09-20T05:58:16.447Z,27.80
2017-09-20T06:00:50.539Z,28.74
2017-09-20T06:03:19.970Z,28.28
2017-09-20T06:05:55.652Z,29.50
2017-09-20T06:08:23.965Z,29.00
2017-09-20T06:10:55.970Z,29.56
2017-09-20T06:13:24.275Z,33.06
2017-09-20T06:16:02.580Z,28.86
2017-09-20T06:18:30.872Z,31.58
2017-09-20T06:21:06.772Z,29.74
2017-09-20T06:26:08.644Z,30.66
2017-09-20T06:28:36.943Z,31.94
2017-09-20T06:31:05.199Z,30.68
2017-09-20T06:33:37.032Z,33.58
2017-09-20T06:36:05.299Z,29.50
2017-09-20T06:38:33.607Z,33.58
2017-09-20T06:41:01.867Z,33.86
2017-09-20T06:43:33.336Z,34.10
2017-09-20T06:46:01.627Z,32.12
2017-09-20T06:48:29.893Z,34.22
2017-09-20T06:50:58.204Z,35.50
2017-09-20T06:53:26.455Z,34.46
2017-09-20T06:55:54.752Z,33.46
2017-09-20T06:58:29.325Z,34.76
2017-09-20T07:00:57.617Z,37.60
2017-09-20T07:03:29.752Z,36.94
2017-09-20T07:05:58.056Z,34.42
2017-09-20T07:08:33.591Z,39.42
2017-09-20T07:11:01.904Z,40.16
2017-09-20T07:13:30.167Z,38.34
2017-09-20T07:15:58.425Z,41.86
2017-09-20T07:18:35.019Z,38.08
2017-09-20T07:21:03.279Z,38.84
2017-09-20T07:23:51.032Z,41.16
2017-09-20T07:26:19.983Z,40.20
2017-09-20T07:28:49.091Z,39.22
2017-09-20T07:31:18.384Z,38.54
2017-09-20T07:33:53.159Z,36.26
2017-09-20T07:36:21.433Z,35.22
2017-09-20T07:38:54.676Z,36.92
2017-09-20T07:41:22.948Z,35.22
2017-09-20T07:43:52.211Z,32.54
2017-09-20T07:46:20.479Z,37.68
2017-09-20T07:48:54.734Z,35.96
2017-09-20T07:51:22.992Z,35.64
2017-09-20T07:53:51.284Z,35.42
2017-09-20T07:56:19.546Z,37.94
2017-09-20T07:58:48.732Z,36.88
2017-09-20T08:01:18.277Z,38.44
2017-09-20T08:04:00.881Z,40.00
2017-09-20T08:06:29.188Z,37.06
2017-09-20T08:08:57.455Z,37.96
2017-09-20T08:11:25.702Z,34.36
2017-09-20T08:13:57.559Z,38.74
2017-09-20T08:16:25.817Z,39.50
2017-09-20T08:19:02.436Z,33.02
2017-09-20T08:21:30.691Z,37.60
2017-09-20T08:23:58.942Z,38.70
2017-09-20T08:26:27.224Z,38.28
2017-09-20T08:28:55.519Z,34.62
2017-09-20T08:31:23.805Z,34.74
2017-09-20T08:33:52.100Z,36.94
2017-09-20T08:36:20.363Z,35.42
2017-09-20T08:38:49.843Z,35.16
2017-09-20T08:41:19.151Z,38.60
2017-09-20T08:43:48.383Z,33.22
2017-09-20T08:46:16.667Z,35.80
2017-09-20T08:48:44.959Z,35.86
2017-09-20T08:51:13.208Z,37.34
2017-09-20T08:53:41.479Z,33.44
2017-09-20T08:56:09.779Z,33.56
2017-09-20T08:58:43.815Z,34.32
2017-09-20T09:01:12.111Z,34.20
2017-09-20T09:03:40.398Z,38.02
2017-09-20T09:06:08.648Z,35.86
2017-09-20T09:08:36.943Z,33.90
2017-09-20T09:11:05.203Z,31.90
2017-09-20T09:13:33.519Z,30.28
2017-09-20T09:16:01.787Z,31.86
2017-09-20T09:18:30.055Z,30.88
2017-09-20T09:21:03.419Z,30.58
2017-09-20T09:23:30.918Z,29.64
2017-09-20T09:25:59.219Z,29.58
2017-09-20T09:28:27.487Z,31.06
2017-09-20T09:30:59.606Z,29.56
2017-09-20T09:33:27.864Z,29.48
2017-09-20T09:35:59.991Z,28.64
2017-09-20T09:38:28.304Z,25.86
2017-09-20T09:41:02.785Z,30.24
2017-09-20T09:43:31.075Z,25.92
2017-09-20T09:45:58.604Z,24.94
2017-09-20T09:48:26.897Z,22.82
2017-09-20T09:50:55.171Z,19.46
2017-09-20T09:53:23.430Z,20.18
2017-09-20T09:55:51.729Z,16.58
2017-09-20T09:58:20.022Z,15.78
2017-09-20T10:00:48.780Z,14.90
2017-09-20T10:03:18.358Z,14.42
2017-09-20T10:05:46.668Z,14.90
2017-09-20T10:08:14.931Z,15.06
2017-09-20T10:10:43.190Z,15.94
2017-09-20T10:13:11.487Z,16.84
2017-09-20T10:15:39.795Z,16.04
2017-09-20T10:18:08.055Z,14.90
2017-09-20T10:20:36.323Z,14.50
2017-09-20T10:23:04.627Z,13.28
2017-09-20T10:25:32.886Z,13.82
2017-09-20T10:28:01.138Z,14.90
2017-09-20T10:30:29.424Z,15.06
2017-09-20T10:32:57.690Z,15.46
2017-09-20T10:35:25.994Z,13.88
2017-09-20T10:37:54.249Z,14.40
2017-09-20T10:40:22.511Z,15.68
2017-09-20T10:42:50.827Z,14.00
2017-09-20T10:45:25.730Z,14.40
2017-09-20T10:47:54.026Z,13.60
2017-09-20T10:50:22.284Z,13.92
2017-09-20T10:52:50.539Z,13.48
2017-09-20T10:55:20.068Z,15.52
2017-09-20T10:57:49.724Z,13.84
2017-09-20T11:00:18.815Z,12.02
2017-09-20T11:02:47.759Z,12.24
2017-09-20T11:05:16.020Z,11.18
2017-09-20T11:07:44.320Z,12.02
2017-09-20T11:10:12.582Z,13.98
2017-09-20T11:12:40.883Z,13.68
2017-09-20T11:15:09.139Z,13.40
2017-09-20T11:17:37.403Z,14.12
2017-09-20T11:20:05.697Z,14.20
2017-09-20T11:22:33.990Z,14.92
2017-09-20T11:25:02.292Z,13.58
2017-09-20T11:27:30.588Z,13.50
2017-09-20T11:29:58.842Z,14.86
2017-09-20T11:32:27.120Z,12.60
2017-09-20T11:34:55.422Z,12.58
2017-09-20T11:37:23.699Z,13.88
2017-09-20T11:39:52.012Z,14.56
2017-09-20T11:42:20.270Z,14.28
2017-09-20T11:44:49.388Z,15.14
2017-09-20T11:47:18.665Z,14.08
2017-09-20T11:49:47.596Z,13.26
2017-09-20T11:52:15.886Z,14.86
2017-09-20T11:54:44.148Z,15.20
2017-09-20T11:57:12.452Z,13.80
2017-09-20T11:59:40.728Z,14.90
2017-09-20T12:02:09.012Z,12.36
2017-09-20T12:04:37.308Z,13.92
2017-09-20T12:07:05.574Z,13.56
2017-09-20T12:09:33.862Z,14.96
2017-09-20T12:12:02.125Z,14.62
2017-09-20T12:14:30.433Z,13.44
2017-09-20T12:16:58.683Z,9.58
2017-09-20T12:19:26.948Z,8.22
2017-09-20T12:21:55.240Z,6.58
2017-09-20T12:24:23.543Z,5.98
2017-09-20T12:26:51.810Z,5.90
2017-09-20T12:29:20.109Z,6.00
2017-09-20T12:31:49.251Z,6.34
2017-09-20T12:34:18.647Z,7.68
2017-09-20T12:36:48.487Z,8.84
2017-09-20T12:39:16.783Z,8.40
2017-09-20T12:41:45.049Z,8.06
2017-09-20T12:44:13.366Z,8.74
2017-09-20T12:46:41.627Z,10.58
2017-09-20T12:49:09.903Z,10.62
2017-09-20T12:51:38.207Z,9.18
2017-09-20T12:54:06.472Z,8.18
2017-09-20T12:56:34.735Z,8.18
2017-09-20T12:59:07.512Z,6.62
2017-09-20T13:01:35.771Z,6.38
2017-09-20T13:04:04.064Z,6.92
2017-09-20T13:06:32.352Z,7.42
2017-09-20T13:09:02.528Z,6.90
2017-09-20T13:11:30.840Z,7.22
2017-09-20T13:14:04.874Z,6.88
2017-09-20T13:16:33.161Z,7.16
2017-09-20T13:19:01.451Z,7.80
2017-09-20T13:21:29.719Z,7.00
2017-09-20T13:24:01.363Z,6.24
2017-09-20T13:26:29.616Z,7.62
2017-09-20T13:29:08.096Z,8.12
2017-09-20T13:31:44.666Z,6.82
2017-09-20T13:34:12.956Z,7.56
2017-09-20T13:36:42.225Z,6.44
2017-09-20T13:39:10.479Z,6.42
2017-09-20T13:41:52.826Z,6.76
2017-09-20T13:44:21.123Z,7.22
2017-09-20T13:46:50.379Z,7.90
2017-09-20T13:49:20.027Z,7.36
2017-09-20T13:52:04.901Z,7.18
2017-09-20T13:54:33.186Z,7.34
2017-09-20T13:57:05.292Z,7.06
2017-09-20T13:59:33.603Z,7.32
2017-09-20T14:02:02.842Z,8.04
2017-09-20T14:04:31.107Z,6.32
2017-09-20T14:07:05.311Z,8.36
2017-09-20T14:09:33.567Z,8.12
2017-09-20T14:12:01.858Z,8.02
2017-09-20T14:14:30.116Z,9.92
2017-09-20T14:17:04.604Z,7.16
2017-09-20T14:19:32.856Z,6.54
2017-09-20T14:22:02.076Z,7.38
2017-09-20T14:24:30.376Z,7.80
2017-09-20T14:27:04.995Z,7.54
2017-09-20T14:29:33.283Z,7.60
2017-09-20T14:32:01.535Z,9.50
2017-09-20T14:34:29.826Z,8.18
2017-09-20T14:37:03.363Z,7.36
2017-09-20T14:39:31.647Z,7.14
2017-09-20T14:42:03.680Z,8.12
2017-09-20T14:44:31.988Z,8.36
2017-09-20T14:46:59.473Z,8.60
2017-09-20T14:49:27.727Z,6.86
2017-09-20T14:52:02.531Z,8.16
2017-09-20T14:54:30.787Z,8.18
2017-09-20T14:57:01.107Z,7.62
2017-09-20T14:59:29.367Z,7.52
2017-09-20T15:01:59.635Z,5.94
2017-09-20T15:04:27.940Z,7.12
2017-09-20T15:07:19.408Z,7.26
2017-09-20T15:09:48.333Z,7.26
2017-09-20T15:12:33.875Z,8.18
2017-09-20T15:15:02.137Z,8.28
2017-09-20T15:17:30.612Z,8.14
2017-09-20T15:19:58.899Z,8.48
2017-09-20T15:22:40.050Z,9.00
2017-09-20T15:25:07.575Z,8.30
2017-09-20T15:27:35.881Z,9.08
2017-09-20T15:30:04.162Z,9.44
2017-09-20T15:32:46.095Z,7.96
2017-09-20T15:35:13.628Z,8.38
2017-09-20T15:37:41.910Z,8.80
2017-09-20T15:40:10.207Z,9.04
2017-09-20T15:45:32.371Z,10.32
2017-09-20T15:48:00.668Z,9.28
2017-09-20T15:50:39.139Z,10.10
2017-09-20T15:53:07.440Z,10.28
2017-09-20T15:55:36.699Z,8.82
2017-09-20T15:58:04.966Z,7.58
2017-09-20T16:00:51.054Z,9.22
2017-09-20T16:03:19.315Z,8.74
2017-09-20T16:05:59.483Z,9.02
2017-09-20T16:08:27.735Z,8.80
2017-09-20T16:10:57.968Z,9.90
2017-09-20T16:13:26.225Z,9.94
2017-09-20T16:15:55.495Z,9.80
2017-09-20T16:18:23.791Z,8.16
2017-09-20T16:20:52.052Z,9.16
2017-09-20T16:23:20.351Z,9.50
2017-09-20T16:25:49.609Z,9.78
2017-09-20T16:28:18.549Z,8.00
2017-09-20T16:30:48.772Z,9.66
2017-09-20T16:33:17.852Z,7.92
2017-09-20T16:35:46.104Z,8.18
2017-09-20T16:38:14.414Z,7.58
2017-09-20T16:40:42.662Z,7.44
2017-09-20T16:43:15.563Z,7.44
2017-09-20T16:45:43.823Z,8.60
2017-09-20T16:48:12.083Z,7.04
2017-09-20T16:50:45.299Z,7.96
2017-09-20T16:53:13.567Z,8.18
2017-09-20T16:55:41.838Z,7.58
2017-09-20T16:58:10.131Z,9.18
2017-09-20T17:00:38.385Z,8.20
2017-09-20T17:03:05.905Z,7.02
2017-09-20T17:05:34.161Z,7.38
2017-09-20T17:08:02.456Z,7.58
2017-09-20T17:10:30.764Z,7.60
2017-09-20T17:12:59.007Z,8.32
2017-09-20T17:15:27.264Z,8.18
2017-09-20T17:17:55.556Z,6.98
2017-09-20T17:20:23.821Z,7.38
2017-09-20T17:22:52.113Z,8.32
2017-09-20T17:25:20.374Z,7.58
2017-09-20T17:27:49.924Z,7.12
2017-09-20T17:30:18.535Z,8.66
2017-09-20T17:32:49.967Z,8.64
2017-09-20T17:35:18.507Z,8.00
2017-09-20T17:37:48.531Z,6.68
2017-09-20T17:40:16.799Z,8.76
2017-09-20T17:42:50.062Z,8.36
2017-09-20T17:45:19.848Z,7.34
2017-09-20T17:47:48.852Z,8.18
2017-09-20T17:50:18.006Z,7.42
2017-09-20T17:52:47.283Z,8.28
2017-09-20T17:55:15.540Z,7.02
2017-09-20T17:57:49.839Z,7.82
2017-09-20T18:00:18.826Z,6.68
2017-09-20T18:02:59.932Z,8.28
2017-09-20T18:05:28.200Z,7.50
2017-09-20T18:08:03.268Z,7.38
2017-09-20T18:10:31.521Z,6.66
2017-09-20T18:13:00.719Z,7.98
2017-09-20T18:15:29.015Z,7.56
2017-09-20T18:17:57.268Z,7.02
2017-09-20T18:20:25.559Z,7.82
2017-09-20T18:22:54.795Z,7.26
2017-09-20T18:25:23.095Z,7.90
2017-09-20T18:27:51.352Z,9.60
2017-09-20T18:30:19.979Z,8.78
2017-09-20T18:32:49.152Z,9.62
2017-09-20T18:35:18.394Z,9.50
2017-09-20T18:37:48.446Z,9.48
2017-09-20T18:40:16.796Z,8.86
2017-09-20T18:42:45.083Z,8.94
2017-09-20T18:45:13.347Z,9.64
2017-09-20T18:47:41.647Z,10.64
2017-09-20T18:50:09.959Z,9.96
2017-09-20T18:52:39.255Z,9.12
2017-09-20T18:55:07.563Z,9.68
2017-09-20T18:57:35.828Z,9.08
2017-09-20T19:00:04.093Z,9.76
2017-09-20T19:02:32.399Z,9.44
2017-09-20T19:05:00.690Z,11.88
2017-09-20T19:07:29.907Z,10.52
2017-09-20T19:09:58.395Z,12.26
2017-09-20T19:12:36.523Z,12.40
2017-09-20T19:15:04.839Z,11.84
2017-09-20T19:17:33.210Z,12.22
2017-09-20T19:20:01.555Z,11.64
2017-09-20T19:22:31.910Z,12.32
2017-09-20T19:25:00.175Z,12.00
2017-09-20T19:27:27.676Z,13.08
2017-09-20T19:29:55.963Z,13.84
2017-09-20T19:32:28.135Z,12.92
2017-09-20T19:34:56.438Z,12.26
2017-09-20T19:37:28.250Z,11.86
2017-09-20T19:39:56.603Z,13.70
2017-09-20T19:42:28.491Z,12.58
2017-09-20T19:44:56.802Z,12.54
2017-09-20T19:47:28.532Z,12.52
2017-09-20T19:49:56.832Z,12.28
2017-09-20T19:52:25.147Z,12.56
2017-09-20T19:54:53.407Z,12.90
2017-09-20T19:57:25.156Z,12.86
2017-09-20T19:59:53.423Z,11.74
2017-09-20T20:02:23.752Z,12.76
2017-09-20T20:04:52.004Z,13.08
2017-09-20T20:07:21.430Z,12.56
2017-09-20T20:09:50.247Z,12.72
2017-09-20T20:12:20.319Z,12.84
2017-09-20T20:14:49.500Z,13.30
2017-09-20T20:17:18.826Z,11.60
2017-09-20T20:19:47.284Z,13.30
2017-09-20T20:22:20.117Z,13.54
2017-09-20T20:24:49.382Z,12.84
2017-09-20T20:27:23.468Z,12.40
2017-09-20T20:29:51.931Z,13.78
2017-09-20T20:32:20.631Z,13.70
2017-09-20T20:34:50.020Z,12.40
2017-09-20T20:37:20.471Z,12.76
2017-09-20T20:39:49.503Z,11.90
2017-09-20T20:42:18.538Z,13.22
2017-09-20T20:44:48.027Z,12.92
2017-09-20T20:47:16.360Z,13.48
2017-09-20T20:49:44.716Z,11.96
2017-09-20T20:52:13.022Z,13.28
2017-09-20T20:54:41.475Z,12.70
2017-09-20T20:57:19.219Z,13.52
2017-09-20T20:59:48.715Z,12.02
2017-09-20T21:02:25.214Z,12.72
2017-09-20T21:04:53.527Z,13.36
2017-09-20T21:07:23.766Z,14.56
2017-09-20T21:09:52.115Z,12.30
2017-09-20T21:12:32.522Z,13.76
2017-09-20T21:15:00.874Z,13.70
2017-09-20T21:17:35.779Z,12.90
2017-09-20T21:20:04.128Z,12.20
2017-09-20T21:22:33.395Z,12.56
2017-09-20T21:25:01.656Z,13.38
2017-09-20T21:27:34.351Z,14.10
2017-09-20T21:30:02.619Z,14.08
2017-09-20T21:32:41.090Z,12.98
2017-09-20T21:35:09.446Z,13.04
2017-09-20T21:37:38.701Z,14.24
2017-09-20T21:40:06.969Z,14.16
2017-09-20T21:42:35.318Z,13.90
2017-09-20T21:45:03.636Z,13.14
2017-09-20T21:47:32.827Z,14.82
2017-09-20T21:50:01.132Z,13.46
2017-09-20T21:52:29.399Z,12.66
2017-09-20T21:54:56.920Z,13.40
2017-09-20T21:57:26.162Z,11.96
2017-09-20T21:59:54.468Z,13.78
2017-09-20T22:02:22.783Z,13.96
2017-09-20T22:04:51.043Z,14.60
2017-09-20T22:07:20.428Z,12.72
2017-09-20T22:09:50.172Z,15.32
2017-09-20T22:12:21.612Z,14.06
2017-09-20T22:14:49.415Z,14.28
2017-09-20T22:17:32.387Z,14.44
2017-09-20T22:20:13.615Z,13.56
2017-09-20T22:22:57.811Z,13.28
2017-09-20T22:25:37.895Z,13.50
2017-09-20T22:28:06.183Z,11.28
2017-09-20T22:30:37.805Z,12.60
2017-09-20T22:33:06.120Z,12.46
2017-09-20T22:35:37.983Z,12.52
2017-09-20T22:38:06.284Z,11.92
2017-09-20T22:40:44.703Z,11.98
2017-09-20T22:43:13.016Z,12.48
2017-09-20T22:45:41.267Z,12.34
2017-09-20T22:48:08.764Z,11.14
2017-09-20T22:50:46.843Z,12.64
2017-09-20T22:53:15.103Z,12.36
2017-09-20T22:55:43.401Z,12.38
2017-09-20T22:58:11.658Z,13.10
2017-09-20T23:00:39.962Z,12.28
2017-09-20T23:03:08.225Z,13.04
2017-09-20T23:05:44.254Z,11.00
2017-09-20T23:08:12.543Z,12.12
2017-09-20T23:10:41.783Z,12.30
2017-09-20T23:13:10.086Z,10.74
2017-09-20T23:15:49.690Z,11.78
2017-09-20T23:18:19.039Z,10.94
2017-09-20T23:20:47.308Z,12.24
2017-09-20T23:23:15.594Z,11.98
2017-09-20T23:25:57.967Z,11.40
2017-09-20T23:28:26.270Z,11.32
2017-09-20T23:30:58.572Z,12.16
2017-09-20T23:33:26.835Z,12.16
2017-09-20T23:36:05.279Z,10.40
2017-09-20T23:38:33.581Z,12.18
2017-09-20T23:41:02.803Z,11.14
2017-09-20T23:43:31.100Z,10.50
2017-09-20T23:45:59.368Z,11.38
2017-09-20T23:48:27.670Z,11.48
2017-09-20T23:51:00.920Z,9.96
2017-09-20T23:53:29.216Z,12.02
2017-09-20T23:56:03.679Z,11.30
2017-09-20T23:58:31.932Z,10.44
